Time;durP1;ratioP1;P1;durP2;ratioP2;P2;SDS_P1;SDS_P2;PMS_P1;PMS_P2;Temp;Humidity;BMP_temperature;BMP_pressure;BME280_temperature;BME280_humidity;BME280_pressure;Samples;Min_cycle;Max_cycle;Signal;HPM_P1;HPM_P2
2022/03/29 00:01:36;;;;;;;17.80;9.60;;;;;;;4.03;43.27;100908.77;107818;1244;71516;-66
2022/03/29 00:04:05;;;;;;;16.80;9.10;;;;;;;4.06;43.46;100908.64;107737;1244;58947;-65
2022/03/29 00:06:35;;;;;;;14.90;9.20;;;;;;;4.05;43.63;100908.52;107549;1244;61676;-65
2022/03/29 00:09:04;;;;;;;19.00;9.60;;;;;;;4.01;44.07;100905.05;107805;1244;74749;-67
2022/03/29 00:11:33;;;;;;;21.80;11.90;;;;;;;3.97;44.29;100899.71;107640;1244;72572;-68
2022/03/29 00:14:02;;;;;;;23.00;11.10;;;;;;;3.90;43.74;100896.23;107624;1245;71698;-64
2022/03/29 00:16:31;;;;;;;23.70;10.50;;;;;;;3.81;44.62;100893.81;107690;1244;71249;-68
2022/03/29 00:19:01;;;;;;;18.40;10.50;;;;;;;3.73;45.29;100889.16;107689;1244;59702;-67
2022/03/29 00:21:30;;;;;;;17.10;9.70;;;;;;;3.67;45.36;100886.12;107734;1244;61787;-68
2022/03/29 00:23:59;;;;;;;14.60;9.00;;;;;;;3.61;42.47;100881.20;107677;1244;72854;-65
2022/03/29 00:26:29;;;;;;;18.20;10.80;;;;;;;3.56;44.51;100885.52;107765;1244;70313;-66
2022/03/29 00:28:58;;;;;;;18.30;10.10;;;;;;;3.60;45.30;100885.02;107829;1244;69204;-67
2022/03/29 00:31:27;;;;;;;19.10;9.90;;;;;;;3.63;45.46;100884.23;107832;1244;74350;-66
2022/03/29 00:33:56;;;;;;;19.20;9.70;;;;;;;3.61;45.72;100878.64;107763;1245;61401;-65
2022/03/29 00:36:27;;;;;;;19.20;9.90;;;;;;;3.56;46.00;100876.57;108047;1245;59490;-66
2022/03/29 00:38:56;;;;;;;18.20;9.60;;;;;;;3.52;46.11;100867.98;107960;1244;71846;-68
2022/03/29 00:41:25;;;;;;;18.70;9.30;;;;;;;3.46;45.70;100862.55;107714;1244;69934;-67
2022/03/29 00:43:54;;;;;;;18.90;9.50;;;;;;;3.37;45.10;100854.98;107792;1244;68516;-67
2022/03/29 00:46:23;;;;;;;19.60;9.70;;;;;;;3.32;46.25;100850.02;108310;1244;74195;-68
2022/03/29 00:48:52;;;;;;;18.20;9.70;;;;;;;3.29;46.60;100844.12;108391;1244;58186;-65
2022/03/29 00:51:21;;;;;;;20.20;10.20;;;;;;;3.26;46.44;100845.07;108418;1244;59236;-66
2022/03/29 00:53:51;;;;;;;18.00;8.80;;;;;;;3.24;46.79;100843.79;108324;1244;70669;-66
2022/03/29 00:56:20;;;;;;;16.70;9.20;;;;;;;3.24;46.80;100843.14;108231;1244;70082;-65
2022/03/29 00:58:49;;;;;;;20.40;9.30;;;;;;;3.22;47.11;100841.30;108088;1247;67920;-71
2022/03/29 01:01:18;;;;;;;16.30;8.90;;;;;;;3.17;46.90;100839.92;108058;1245;71946;-65
2022/03/29 01:03:48;;;;;;;16.30;9.20;;;;;;;3.13;46.66;100841.10;108034;1244;60470;-65
2022/03/29 01:06:17;;;;;;;18.60;9.40;;;;;;;3.09;47.33;100840.45;107990;1244;60103;-66
2022/03/29 01:08:46;;;;;;;18.30;10.00;;;;;;;3.05;46.74;100837.64;107877;1245;71983;-65
2022/03/29 01:11:15;;;;;;;20.50;10.00;;;;;;;3.02;46.16;100835.88;107834;1244;70786;-65
2022/03/29 01:13:45;;;;;;;19.10;9.80;;;;;;;2.98;47.18;100830.37;107823;1244;70557;-66
2022/03/29 01:19:08;;;;;;;17.60;8.50;;;;;;;2.92;46.41;100836.27;107805;1244;60969;-66
2022/03/29 01:21:40;;;;;;;18.70;9.80;;;;;;;2.90;45.58;100836.70;107753;1244;58924;-68
2022/03/29 01:24:11;;;;;;;19.20;9.70;;;;;;;2.86;45.22;100832.88;107934;1241;70488;-67
2022/03/29 01:26:41;;;;;;;18.00;9.80;;;;;;;2.83;46.26;100834.20;107840;1246;72412;-66
2022/03/29 01:29:10;;;;;;;18.50;9.10;;;;;;;2.80;46.51;100831.05;108016;1243;68703;-69
2022/03/29 01:31:41;;;;;;;18.80;9.90;;;;;;;2.80;47.14;100829.52;108132;1245;74843;-69
2022/03/29 01:34:11;;;;;;;20.60;10.80;;;;;;;2.82;47.18;100831.81;108065;1244;60147;-66
2022/03/29 01:36:40;;;;;;;18.50;10.20;;;;;;;2.80;45.72;100831.73;107738;1244;60063;-64
2022/03/29 01:39:09;;;;;;;19.70;9.80;;;;;;;2.82;49.05;100828.71;107807;1245;71647;-66
2022/03/29 01:41:38;;;;;;;17.20;9.90;;;;;;;2.84;48.76;100823.68;107791;1244;70319;-66
2022/03/29 01:44:10;;;;;;;16.30;10.10;;;;;;;2.81;48.79;100821.04;107813;1244;69729;-65
2022/03/29 01:46:38;;;;;;;18.00;10.40;;;;;;;2.75;49.11;100816.45;107761;1245;74427;-66
2022/03/29 01:49:08;;;;;;;20.10;10.60;;;;;;;2.70;48.43;100810.11;107778;1245;60719;-66
2022/03/29 01:51:40;;;;;;;18.20;10.40;;;;;;;2.68;49.02;100804.02;107800;1245;59615;-68
2022/03/29 01:54:14;;;;;;;16.80;9.60;;;;;;;2.63;49.48;100800.90;107629;1244;72757;-66
2022/03/29 01:56:43;;;;;;;22.90;10.70;;;;;;;2.60;49.81;100795.21;107731;1246;70745;-65
2022/03/29 01:59:12;;;;;;;19.40;10.60;;;;;;;2.54;49.27;100793.19;107792;1245;71739;-64
2022/03/29 02:01:45;;;;;;;18.20;9.90;;;;;;;2.51;49.70;100789.19;107834;1245;73133;-65
2022/03/29 02:04:15;;;;;;;16.30;9.60;;;;;;;2.48;49.82;100786.69;107848;1244;60299;-65
2022/03/29 02:06:45;;;;;;;19.70;10.50;;;;;;;2.47;50.07;100786.75;107725;1244;61790;-66
2022/03/29 02:09:14;;;;;;;17.90;9.70;;;;;;;2.43;49.70;100785.34;107834;1244;72348;-66
2022/03/29 02:11:43;;;;;;;23.40;10.20;;;;;;;2.38;50.36;100782.42;107760;1244;70696;-66
2022/03/29 02:14:12;;;;;;;18.40;10.10;;;;;;;2.36;50.50;100781.12;107971;1245;68691;-65
2022/03/29 02:16:41;;;;;;;20.80;10.20;;;;;;;2.32;49.35;100776.45;108229;1244;73201;-66
2022/03/29 02:19:11;;;;;;;23.10;10.60;;;;;;;2.29;50.35;100770.71;108181;1244;59961;-67
2022/03/29 02:21:40;;;;;;;19.30;9.70;;;;;;;2.28;50.29;100767.67;108024;1245;62039;-67
2022/03/29 02:24:08;;;;;;;16.60;9.60;;;;;;;2.28;50.04;100768.55;107976;1244;73259;-65
2022/03/29 02:26:37;;;;;;;20.90;9.60;;;;;;;2.28;50.69;100767.69;107686;1247;70194;-64
2022/03/29 02:29:06;;;;;;;18.00;9.20;;;;;;;2.28;49.67;100770.11;107828;1244;69386;-65
2022/03/29 02:31:36;;;;;;;18.70;9.70;;;;;;;2.28;50.57;100768.89;107833;1245;73401;-64
2022/03/29 02:34:05;;;;;;;19.50;10.20;;;;;;;2.26;50.42;100770.33;107904;1244;58966;-65
2022/03/29 02:36:34;;;;;;;22.80;9.80;;;;;;;2.24;50.51;100770.92;107590;1245;61879;-66
2022/03/29 02:39:03;;;;;;;18.30;9.60;;;;;;;2.22;51.01;100767.91;107729;1246;74716;-65
2022/03/29 02:41:32;;;;;;;20.60;9.50;;;;;;;2.20;51.44;100764.55;107927;1244;70625;-67
2022/03/29 02:44:02;;;;;;;18.80;9.90;;;;;;;2.17;51.24;100758.80;107926;1244;67933;-64
2022/03/29 02:46:33;;;;;;;17.00;9.30;;;;;;;2.16;51.92;100757.98;107657;1247;73938;-68
2022/03/29 02:49:02;;;;;;;17.90;9.30;;;;;;;2.15;51.83;100754.59;107821;1244;59444;-67
2022/03/29 02:51:31;;;;;;;15.40;9.40;;;;;;;2.17;52.11;100752.64;107787;1245;59711;-65
2022/03/29 02:54:00;;;;;;;20.70;10.10;;;;;;;2.16;51.59;100754.55;107731;1244;71175;-68
2022/03/29 02:56:29;;;;;;;18.50;9.30;;;;;;;2.14;52.04;100750.31;107857;1245;68569;-68
2022/03/29 02:58:58;;;;;;;19.60;9.30;;;;;;;2.12;52.09;100754.16;107675;1244;68185;-64
2022/03/29 03:01:30;;;;;;;22.40;9.70;;;;;;;2.08;50.62;100755.19;107971;1244;71163;-67
2022/03/29 03:03:59;;;;;;;18.50;9.10;;;;;;;2.04;52.68;100763.25;108090;1244;58776;-67
2022/03/29 03:06:28;;;;;;;17.70;9.60;;;;;;;1.99;51.82;100759.80;108242;1244;61075;-68
2022/03/29 03:08:57;;;;;;;24.80;10.00;;;;;;;1.96;52.88;100761.98;108042;1244;73815;-68
2022/03/29 03:11:27;;;;;;;18.00;9.40;;;;;;;1.92;52.67;100762.98;108048;1244;73567;-66
2022/03/29 03:13:56;;;;;;;15.80;9.30;;;;;;;1.88;53.02;100760.73;108200;1244;71943;-68
2022/03/29 03:16:26;;;;;;;20.40;10.00;;;;;;;1.86;52.93;100762.65;108068;1244;72854;-67
2022/03/29 03:18:56;;;;;;;23.80;10.20;;;;;;;1.84;53.23;100761.02;107843;1244;59220;-66
2022/03/29 03:21:26;;;;;;;17.60;8.90;;;;;;;1.82;53.39;100764.02;107899;1244;61578;-66
2022/03/29 03:23:55;;;;;;;16.90;8.60;;;;;;;1.80;53.38;100766.31;107796;1244;71789;-68
2022/03/29 03:26:24;;;;;;;23.10;10.10;;;;;;;1.77;52.35;100762.32;107904;1242;71590;-67
2022/03/29 03:28:53;;;;;;;24.00;11.70;;;;;;;1.75;52.24;100764.61;107935;1242;70598;-66
2022/03/29 03:31:22;;;;;;;20.80;10.10;;;;;;;1.73;53.21;100759.88;107848;1244;74504;-66
2022/03/29 03:33:51;;;;;;;22.10;9.50;;;;;;;1.70;53.05;100760.33;107803;1244;59287;-65
2022/03/29 03:36:20;;;;;;;19.10;10.60;;;;;;;1.67;53.36;100760.43;107856;1244;58945;-64
2022/03/29 03:38:49;;;;;;;23.30;10.10;;;;;;;1.64;54.00;100756.58;107681;1247;73202;-67
2022/03/29 03:41:19;;;;;;;26.20;10.90;;;;;;;1.61;53.67;100756.67;107719;1245;73147;-67
2022/03/29 03:43:48;;;;;;;18.50;9.70;;;;;;;1.58;52.49;100755.58;107792;1245;70437;-67
2022/03/29 03:46:17;;;;;;;20.30;10.70;;;;;;;1.55;53.38;100753.11;107819;1244;74768;-67
2022/03/29 03:48:46;;;;;;;19.60;11.10;;;;;;;1.54;54.81;100750.05;107826;1245;60527;-67
2022/03/29 03:51:16;;;;;;;20.30;10.60;;;;;;;1.54;55.23;100750.90;107859;1244;61931;-67
2022/03/29 03:53:45;;;;;;;19.80;9.80;;;;;;;1.54;53.72;100751.77;107750;1244;74696;-68
2022/03/29 03:56:14;;;;;;;18.90;9.70;;;;;;;1.55;54.39;100748.81;107708;1244;72492;-65
2022/03/29 03:58:43;;;;;;;20.40;10.30;;;;;;;1.54;55.03;100743.87;107469;1246;71754;-67
2022/03/29 04:01:12;;;;;;;17.50;9.60;;;;;;;1.54;55.07;100745.44;107793;1245;74798;-65
2022/03/29 04:03:42;;;;;;;26.10;12.70;;;;;;;1.53;54.17;100744.60;107828;1244;60554;-68
2022/03/29 04:06:11;;;;;;;24.50;11.00;;;;;;;1.57;55.04;100748.58;107509;1245;60924;-65
2022/03/29 04:08:40;;;;;;;25.00;11.60;;;;;;;1.57;53.74;100748.23;108033;1247;74478;-66
2022/03/29 04:11:09;;;;;;;27.80;11.40;;;;;;;1.57;54.71;100751.30;108313;1244;70153;-68
2022/03/29 04:13:38;;;;;;;26.30;12.20;;;;;;;1.60;54.69;100750.73;108155;1244;66887;-67
2022/03/29 04:16:07;;;;;;;22.30;11.70;;;;;;;1.63;54.04;100750.61;107959;1245;71261;-69
2022/03/29 04:18:37;;;;;;;29.40;12.90;;;;;;;1.66;55.03;100750.83;107827;1244;60864;-71
2022/03/29 04:21:08;;;;;;;26.80;13.20;;;;;;;1.74;55.02;100750.75;108083;1244;61026;-67
2022/03/29 04:23:37;;;;;;;29.50;12.90;;;;;;;1.76;55.11;100747.58;107893;1247;74543;-69
2022/03/29 04:26:06;;;;;;;25.20;12.00;;;;;;;1.81;55.11;100746.71;107923;1244;73687;-72
2022/03/29 04:28:35;;;;;;;28.40;11.90;;;;;;;1.86;55.07;100745.99;108195;1244;70351;-73
2022/03/29 04:31:03;;;;;;;29.60;13.20;;;;;;;1.91;54.68;100748.73;107868;1244;74277;-73
2022/03/29 04:33:32;;;;;;;35.60;17.00;;;;;;;1.98;55.32;100744.37;107869;1247;60554;-72
2022/03/29 04:36:02;;;;;;;33.40;15.00;;;;;;;2.04;54.63;100740.73;107929;1245;61283;-71
2022/03/29 04:38:31;;;;;;;27.60;14.20;;;;;;;2.12;54.97;100741.96;107915;1244;72680;-70
2022/03/29 04:41:00;;;;;;;30.80;14.70;;;;;;;2.23;54.64;100740.89;107882;1243;69539;-70
2022/03/29 04:43:30;;;;;;;30.10;13.90;;;;;;;2.33;54.48;100737.77;107988;1244;71445;-71
2022/03/29 04:46:01;;;;;;;29.90;13.80;;;;;;;2.44;54.22;100739.06;108063;1244;74424;-70
2022/03/29 04:48:30;;;;;;;36.20;14.00;;;;;;;2.54;53.71;100736.27;107995;1247;62061;-71
2022/03/29 04:50:59;;;;;;;31.90;14.50;;;;;;;2.63;53.42;100741.56;107951;1244;62732;-72
2022/03/29 04:53:29;;;;;;;31.10;16.20;;;;;;;2.72;52.89;100738.30;107880;1244;73870;-73
2022/03/29 04:55:58;;;;;;;43.50;14.90;;;;;;;2.81;52.59;100743.31;108234;1244;73140;-73
2022/03/29 04:58:27;;;;;;;37.90;15.80;;;;;;;2.88;53.41;100738.17;107808;1244;69074;-71
2022/03/29 05:00:58;;;;;;;38.80;15.50;;;;;;;2.99;53.08;100742.25;107621;1244;72004;-68
2022/03/29 05:03:27;;;;;;;41.20;16.20;;;;;;;3.09;52.95;100743.21;107722;1244;59562;-69
2022/03/29 05:05:56;;;;;;;35.40;16.00;;;;;;;3.20;52.86;100739.84;107475;1244;59407;-70
2022/03/29 05:08:25;;;;;;;33.70;15.10;;;;;;;3.31;52.53;100736.46;107659;1244;70893;-71
2022/03/29 05:10:54;;;;;;;31.00;15.00;;;;;;;3.43;52.33;100733.19;107673;1244;70652;-74
2022/03/29 05:13:24;;;;;;;35.50;16.40;;;;;;;3.53;51.89;100732.23;107741;1244;71496;-70
2022/03/29 05:15:53;;;;;;;30.50;15.50;;;;;;;3.65;51.20;100727.92;107166;1244;893389;-71
2022/03/29 05:18:22;;;;;;;31.20;13.80;;;;;;;3.76;50.49;100725.41;107794;1244;60123;-70
2022/03/29 05:20:51;;;;;;;26.20;12.60;;;;;;;3.93;50.11;100731.52;107875;1244;62029;-71
2022/03/29 05:23:20;;;;;;;29.40;12.50;;;;;;;4.12;49.56;100732.20;107899;1244;72124;-70
2022/03/29 05:25:49;;;;;;;31.80;12.10;;;;;;;4.39;47.93;100727.89;107722;1247;71898;-70
2022/03/29 05:28:18;;;;;;;27.70;12.40;;;;;;;4.60;47.69;100729.70;107855;1244;69370;-71
2022/03/29 05:30:49;;;;;;;32.60;11.50;;;;;;;4.79;47.74;100724.79;107854;1244;72781;-74
2022/03/29 05:33:18;;;;;;;28.60;11.80;;;;;;;5.04;47.05;100722.70;108033;1244;59650;-73
2022/03/29 05:35:46;;;;;;;26.90;11.70;;;;;;;5.29;46.27;100721.64;108298;1244;60316;-71
2022/03/29 05:38:15;;;;;;;27.80;11.50;;;;;;;5.44;45.40;100718.98;107840;1245;74495;-72
2022/03/29 05:40:44;;;;;;;32.60;12.60;;;;;;;5.55;45.60;100716.71;107801;1245;73305;-73
2022/03/29 05:43:13;;;;;;;34.90;12.60;;;;;;;5.65;45.26;100716.02;107967;1245;71006;-71
2022/03/29 05:45:45;;;;;;;25.00;11.00;;;;;;;5.76;44.56;100714.73;107587;1247;71447;-70
2022/03/29 05:51:02;;;;;;;28.70;11.90;;;;;;;6.01;44.59;100707.05;107706;1244;61092;-70
2022/03/29 05:53:31;;;;;;;36.40;14.40;;;;;;;6.04;43.56;100709.49;107492;1245;74047;-72
2022/03/29 05:56:00;;;;;;;23.70;12.20;;;;;;;6.10;43.80;100708.98;107432;1247;73030;-72
2022/03/29 05:58:30;;;;;;;30.10;12.50;;;;;;;6.25;43.76;100705.59;108982;1244;68683;-72
2022/03/29 06:00:59;;;;;;;22.20;11.80;;;;;;;6.41;43.70;100704.90;107573;1244;72308;-71
2022/03/29 06:03:28;;;;;;;27.60;12.10;;;;;;;6.50;42.91;100704.91;107461;1247;59119;-72
2022/03/29 06:05:57;;;;;;;25.50;11.80;;;;;;;6.68;43.11;100706.48;107554;1244;59789;-71
2022/03/29 06:08:29;;;;;;;27.70;12.20;;;;;;;6.80;42.43;100704.10;107525;1244;71164;-70
2022/03/29 06:10:58;;;;;;;28.10;12.60;;;;;;;6.91;42.33;100700.70;107769;1247;69664;-71
2022/03/29 06:13:29;;;;;;;27.40;12.30;;;;;;;7.05;41.74;100698.86;107866;1244;69490;-72
2022/03/29 06:15:58;;;;;;;25.40;12.00;;;;;;;7.18;41.51;100694.83;107483;1245;75456;-71
2022/03/29 06:18:27;;;;;;;27.80;11.70;;;;;;;7.36;41.18;100690.43;107680;1247;59036;-72
2022/03/29 06:20:57;;;;;;;28.50;12.30;;;;;;;7.50;40.99;100688.91;107733;1244;59678;-71
2022/03/29 06:23:26;;;;;;;27.10;13.10;;;;;;;7.64;40.71;100688.23;107456;1247;72044;-71
2022/03/29 06:25:55;;;;;;;30.60;12.20;;;;;;;7.80;40.60;100686.23;107850;1244;72221;-70
2022/03/29 06:28:24;;;;;;;24.80;12.20;;;;;;;7.97;40.05;100689.55;107603;1244;71436;-69
2022/03/29 06:30:53;;;;;;;30.50;13.10;;;;;;;8.09;39.73;100689.64;107798;1244;71729;-72
2022/03/29 06:33:23;;;;;;;26.10;13.00;;;;;;;8.21;39.48;100692.01;107654;1244;58980;-71
2022/03/29 06:35:52;;;;;;;28.00;13.30;;;;;;;8.38;39.37;100689.46;107476;1244;61332;-71
2022/03/29 06:38:22;;;;;;;35.10;13.30;;;;;;;8.56;39.65;100686.34;107552;1247;74380;-72
2022/03/29 06:40:53;;;;;;;30.00;13.70;;;;;;;8.63;38.93;100683.29;107539;1245;72253;-71
2022/03/29 06:43:22;;;;;;;29.20;13.30;;;;;;;8.83;38.85;100683.73;107590;1244;70853;-72
2022/03/29 06:45:52;;;;;;;32.70;13.30;;;;;;;9.00;38.24;100679.32;107338;1245;73729;-71
2022/03/29 06:48:23;;;;;;;32.00;12.70;;;;;;;9.13;37.89;100681.94;107529;1245;61680;-72
2022/03/29 06:50:52;;;;;;;29.20;13.20;;;;;;;9.16;37.87;100676.88;107606;1244;61132;-71
2022/03/29 06:53:21;;;;;;;32.90;13.60;;;;;;;9.39;37.79;100672.55;107545;1246;73438;-72
2022/03/29 06:55:51;;;;;;;30.20;15.00;;;;;;;9.55;37.63;100673.51;107477;1247;73611;-72
2022/03/29 06:58:21;;;;;;;36.70;14.70;;;;;;;9.58;37.14;100668.61;107562;1245;72240;-71
2022/03/29 07:00:50;;;;;;;30.40;15.60;;;;;;;9.72;36.87;100668.56;107527;1244;73279;-72
2022/03/29 07:03:21;;;;;;;27.60;13.40;;;;;;;9.82;36.82;100655.44;107640;1244;60983;-71
2022/03/29 07:05:51;;;;;;;33.70;14.80;;;;;;;9.89;36.30;100655.86;107637;1244;62070;-72
2022/03/29 07:08:22;;;;;;;29.90;14.10;;;;;;;9.96;36.01;100652.41;107643;1244;71459;-71
2022/03/29 07:13:40;;;;;;;25.70;14.10;;;;;;;10.04;36.03;100653.77;107492;1246;69918;-72
2022/03/29 07:16:09;;;;;;;28.70;13.90;;;;;;;10.15;35.86;100650.51;107785;1244;71366;-73
2022/03/29 07:18:39;;;;;;;33.80;15.50;;;;;;;10.35;35.52;100652.27;107757;1244;62326;-74
2022/03/29 07:21:09;;;;;;;32.20;15.50;;;;;;;10.51;35.59;100650.04;107609;1245;61670;-73
2022/03/29 07:23:40;;;;;;;31.90;14.90;;;;;;;10.52;34.93;100647.36;107742;1244;72568;-72
2022/03/29 07:26:09;;;;;;;28.20;14.90;;;;;;;10.43;35.01;100646.79;107640;1244;72302;-74
2022/03/29 07:28:38;;;;;;;29.70;14.40;;;;;;;10.43;35.04;100643.48;107625;1244;71989;-72
2022/03/29 07:31:07;;;;;;;34.90;15.80;;;;;;;10.65;35.30;100640.88;107940;1244;74680;-75
2022/03/29 07:33:36;;;;;;;24.70;14.80;;;;;;;10.89;34.63;100635.02;107833;1244;60139;-74
2022/03/29 07:36:05;;;;;;;31.90;15.70;;;;;;;10.97;34.20;100630.27;107547;1246;60809;-72
2022/03/29 07:38:34;;;;;;;27.00;15.40;;;;;;;10.99;34.05;100629.77;107683;1244;71558;-73
2022/03/29 07:41:03;;;;;;;31.50;16.00;;;;;;;11.17;34.27;100633.48;107557;1244;72653;-73
2022/03/29 07:43:32;;;;;;;33.00;16.60;;;;;;;11.24;33.55;100632.55;107691;1244;68729;-71
2022/03/29 07:46:02;;;;;;;30.60;16.10;;;;;;;11.01;33.73;100624.59;107623;1244;74222;-71
2022/03/29 07:48:32;;;;;;;33.10;16.60;;;;;;;11.19;33.45;100627.55;107699;1245;61858;-73
2022/03/29 07:51:21;;;;;;;41.40;18.30;;;;;;;11.32;33.51;100621.36;107639;1244;61185;-72
2022/03/29 07:53:51;;;;;;;33.90;16.40;;;;;;;11.53;33.33;100621.94;107704;1246;71847;-72
2022/03/29 07:56:19;;;;;;;34.60;16.50;;;;;;;11.84;33.19;100622.88;107944;1244;71484;-73
2022/03/29 07:58:49;;;;;;;33.30;16.20;;;;;;;12.01;32.68;100618.92;107926;1244;71495;-73
2022/03/29 08:01:18;;;;;;;33.00;17.90;;;;;;;12.33;32.56;100619.34;107642;1244;74539;-73
2022/03/29 08:03:47;;;;;;;40.20;17.40;;;;;;;12.55;31.97;100615.98;107771;1243;60904;-72
2022/03/29 08:06:16;;;;;;;32.60;17.90;;;;;;;12.60;31.62;100610.44;107963;1244;60068;-74
2022/03/29 08:08:46;;;;;;;37.10;18.10;;;;;;;12.96;31.40;100610.79;107912;1244;73575;-73
2022/03/29 08:11:15;;;;;;;32.80;18.70;;;;;;;13.00;30.80;100606.75;107562;1246;71411;-73
2022/03/29 08:13:46;;;;;;;44.60;20.90;;;;;;;13.21;30.84;100601.33;107711;1247;68684;-73
2022/03/29 08:16:16;;;;;;;39.50;19.00;;;;;;;13.49;30.32;100598.80;107802;1244;73986;-73
2022/03/29 08:18:44;;;;;;;41.40;18.60;;;;;;;13.72;30.22;100595.36;107847;1244;61732;-72
2022/03/29 08:24:01;;;;;;;41.20;18.90;;;;;;;13.57;29.75;100594.76;107741;1244;73033;-72
2022/03/29 08:26:30;;;;;;;39.90;19.00;;;;;;;13.53;30.10;100590.60;107746;1244;71261;-72
2022/03/29 08:29:00;;;;;;;37.30;19.00;;;;;;;13.43;30.29;100589.49;107481;1244;69775;-72
2022/03/29 08:31:29;;;;;;;38.10;18.60;;;;;;;13.55;30.23;100588.48;107476;1244;74708;-71
2022/03/29 08:33:58;;;;;;;39.40;19.20;;;;;;;13.79;29.93;100583.42;107600;1244;60724;-72
2022/03/29 08:36:27;;;;;;;38.40;17.10;;;;;;;14.07;29.74;100585.48;107737;1244;62651;-72
2022/03/29 08:38:56;;;;;;;30.90;17.90;;;;;;;14.27;29.97;100581.02;107533;1244;73807;-72
2022/03/29 08:41:31;;;;;;;38.80;20.20;;;;;;;14.61;29.20;100575.19;107761;1244;72758;-72
2022/03/29 08:44:01;;;;;;;35.00;18.40;;;;;;;14.75;29.15;100572.36;107756;1244;70068;-73
2022/03/29 08:46:41;;;;;;;31.40;17.80;;;;;;;14.87;28.73;100571.37;107463;1244;74732;-74
2022/03/29 08:49:11;;;;;;;42.60;19.10;;;;;;;14.53;29.01;100564.36;107695;1244;59404;-73
2022/03/29 08:51:41;;;;;;;45.80;18.80;;;;;;;14.79;29.07;100563.00;107998;1244;60820;-73
2022/03/29 08:54:11;;;;;;;32.50;18.90;;;;;;;15.19;28.58;100562.60;108149;1244;73596;-75
2022/03/29 08:56:40;;;;;;;35.30;19.00;;;;;;;15.25;28.07;100559.27;107905;1244;72863;-73
2022/03/29 08:59:09;;;;;;;40.80;19.10;;;;;;;15.39;27.88;100553.52;107871;1244;71126;-74
2022/03/29 09:01:38;;;;;;;40.10;19.00;;;;;;;15.41;27.85;100548.23;107515;1244;74731;-74
2022/03/29 09:04:13;;;;;;;43.10;20.00;;;;;;;15.58;27.63;100543.76;107801;1244;59599;-72
2022/03/29 09:06:51;;;;;;;38.60;20.80;;;;;;;15.87;27.48;100540.48;107883;1244;61327;-72
2022/03/29 09:09:40;;;;;;;36.60;19.10;;;;;;;15.83;27.33;100539.02;108001;1244;72858;-73
2022/03/29 09:12:19;;;;;;;41.10;20.20;;;;;;;15.99;27.33;100533.72;107963;1244;69559;-75
2022/03/29 09:15:00;;;;;;;41.30;20.00;;;;;;;16.35;27.25;100533.54;107800;1244;69044;-73
2022/03/29 09:17:35;;;;;;;34.80;20.50;;;;;;;16.63;26.87;100530.37;107919;1244;74276;-73
2022/03/29 09:20:16;;;;;;;33.30;19.20;;;;;;;16.79;26.36;100526.31;107717;1244;59575;-71
2022/03/29 09:22:50;;;;;;;33.20;20.10;;;;;;;16.41;26.34;100522.68;108215;1244;59099;-74
2022/03/29 09:25:48;;;;;;;34.90;19.30;;;;;;;16.76;26.39;100513.52;108444;1244;73592;-73
2022/03/29 09:28:21;;;;;;;38.50;20.70;;;;;;;16.72;26.14;100505.51;107907;1244;72764;-73
2022/03/29 09:30:53;;;;;;;38.20;19.40;;;;;;;16.84;26.08;100497.77;108009;1244;71608;-75
2022/03/29 09:33:30;;;;;;;41.00;20.40;;;;;;;17.26;25.79;100494.79;108013;1244;72248;-74
2022/03/29 09:36:07;;;;;;;44.00;20.50;;;;;;;17.45;25.43;100482.49;108081;1244;59764;-72
2022/03/29 09:38:41;;;;;;;32.60;19.10;;;;;;;17.75;24.94;100482.19;107849;1244;58954;-73
2022/03/29 09:41:30;;;;;;;36.40;19.90;;;;;;;17.57;24.92;100479.46;107783;1244;71873;-75
2022/03/29 09:44:11;;;;;;;36.50;19.90;;;;;;;17.71;25.15;100472.57;107809;1244;71821;-74
2022/03/29 09:47:04;;;;;;;37.90;20.00;;;;;;;18.12;25.11;100461.68;108078;1244;70696;-75
2022/03/29 09:50:08;;;;;;;36.70;20.10;;;;;;;18.43;25.20;100459.73;108108;1244;74853;-72
2022/03/29 09:52:44;;;;;;;37.50;19.50;;;;;;;18.30;24.29;100454.13;108113;1244;59210;-73
2022/03/29 09:55:21;;;;;;;41.60;18.50;;;;;;;18.33;24.08;100448.84;107882;1244;58767;-73
2022/03/29 09:57:54;;;;;;;39.90;20.80;;;;;;;18.54;24.60;100446.83;107853;1244;72900;-74
2022/03/29 10:00:29;;;;;;;35.20;19.40;;;;;;;18.78;24.80;100441.60;107839;1244;72740;-74
2022/03/29 10:03:02;;;;;;;44.30;19.60;;;;;;;18.88;24.31;100436.42;107974;1244;69867;-73
2022/03/29 10:05:33;;;;;;;35.40;18.20;;;;;;;19.10;24.33;100434.17;107893;1244;72468;-73
2022/03/29 10:11:00;;;;;;;35.00;19.00;;;;;;;19.40;24.10;100419.73;107769;1244;61339;-73
2022/03/29 10:13:29;;;;;;;33.10;17.60;;;;;;;19.48;23.71;100412.52;107705;1244;73246;-75
2022/03/29 10:16:01;;;;;;;27.80;16.90;;;;;;;19.56;23.48;100409.30;107949;1244;62948;-74
2022/03/29 10:18:31;;;;;;;32.10;17.00;;;;;;;19.36;22.79;100402.37;108023;1244;60387;-74
2022/03/29 10:21:01;;;;;;;32.60;17.10;;;;;;;19.28;23.05;100399.54;107902;1244;73969;-75
2022/03/29 10:23:31;;;;;;;35.70;16.90;;;;;;;19.15;22.63;100395.01;107796;1244;59069;-73
2022/03/29 10:26:02;;;;;;;29.60;18.10;;;;;;;19.40;23.04;100386.95;108036;1244;57561;-74
2022/03/29 10:28:32;;;;;;;30.60;17.00;;;;;;;19.60;23.29;100375.92;107718;1244;72552;-73
2022/03/29 10:31:02;;;;;;;29.60;16.30;;;;;;;19.64;22.68;100371.08;107902;1244;61380;-75
2022/03/29 10:33:33;;;;;;;29.20;15.50;;;;;;;19.89;22.11;100367.65;107813;1244;60381;-76
2022/03/29 10:36:12;;;;;;;31.20;14.50;;;;;;;19.81;21.56;100365.88;108181;1244;70901;-74
2022/03/29 10:38:46;;;;;;;23.00;13.40;;;;;;;19.09;22.02;100356.10;108050;1243;61909;-73
2022/03/29 10:41:28;;;;;;;23.60;13.80;;;;;;;18.99;22.05;100346.92;107967;1244;60922;-75
2022/03/29 10:44:14;;;;;;;26.70;13.70;;;;;;;19.04;22.06;100344.91;107783;1244;74832;-76
2022/03/29 10:46:47;;;;;;;22.00;12.20;;;;;;;19.42;21.64;100343.96;108013;1244;62191;-73
2022/03/29 10:49:20;;;;;;;17.70;11.10;;;;;;;19.87;21.67;100338.75;108054;1244;59997;-71
2022/03/29 10:52:05;;;;;;;15.80;10.60;;;;;;;20.29;21.07;100332.34;108073;1244;72752;-72
2022/03/29 10:54:38;;;;;;;19.00;9.80;;;;;;;20.34;20.96;100326.02;108023;1244;59073;-75
2022/03/29 10:57:31;;;;;;;17.30;8.00;;;;;;;20.35;20.86;100318.71;108141;1244;57432;-72
2022/03/29 11:00:11;;;;;;;;;;;;;;;20.77;20.35;100310.79;107868;1244;74558;-72
2022/03/29 11:03:22;;;;;;;9.20;6.30;;;;;;;20.75;20.26;100305.21;108012;1244;62522;-73
2022/03/29 11:06:12;;;;;;;9.90;5.90;;;;;;;20.66;20.31;100297.51;107856;1244;70628;-72
2022/03/29 11:08:47;;;;;;;8.90;5.60;;;;;;;20.72;19.99;100299.61;107921;1244;74544;-73
2022/03/29 11:11:51;;;;;;;11.10;6.00;;;;;;;20.60;20.13;100294.54;107887;1244;61140;-72
2022/03/29 11:14:38;;;;;;;9.80;7.00;;;;;;;20.44;20.52;100284.03;107880;1244;60839;-75
2022/03/29 11:17:12;;;;;;;10.80;7.10;;;;;;;20.48;20.49;100278.80;107636;1244;75142;-74
2022/03/29 11:19:50;;;;;;;12.30;7.70;;;;;;;20.59;20.43;100268.16;108063;1244;72088;-72
2022/03/29 11:22:36;;;;;;;12.50;8.00;;;;;;;20.66;20.19;100266.36;107925;1244;59732;-73
2022/03/29 11:25:14;;;;;;;13.60;7.00;;;;;;;20.57;20.53;100265.96;107851;1243;73325;-71
2022/03/29 11:27:44;;;;;;;9.50;6.60;;;;;;;20.78;20.37;100263.67;107785;1244;62264;-73
2022/03/29 11:30:18;;;;;;;11.60;6.60;;;;;;;20.83;20.25;100256.29;108021;1244;58781;-73
2022/03/29 11:32:55;;;;;;;15.80;8.10;;;;;;;20.72;20.45;100250.71;107700;1244;74649;-75
2022/03/29 11:35:27;;;;;;;11.40;7.60;;;;;;;20.74;20.79;100252.90;108081;1244;63777;-73
2022/03/29 11:38:09;;;;;;;12.70;7.40;;;;;;;20.91;20.58;100252.95;107950;1244;59971;-73
2022/03/29 11:40:40;;;;;;;15.10;7.10;;;;;;;21.14;20.22;100250.83;107940;1244;64223;-74
2022/03/29 11:43:12;;;;;;;10.20;6.70;;;;;;;21.02;20.54;100241.50;107895;1244;59155;-75